sensor_id;sensor_type;location;lat;lon;timestamp;P1;durP1;ratioP1;P2;durP2;ratioP2
77828;SDS011;67019;51.034;3.728;2023-07-31T00:00:50;23.27;;;5.83;;
77828;SDS011;67019;51.034;3.728;2023-07-31T00:03:18;21.60;;;6.05;;
77828;SDS011;67019;51.034;3.728;2023-07-31T00:05:46;14.50;;;5.35;;
77828;SDS011;67019;51.034;3.728;2023-07-31T00:08:13;22.52;;;6.55;;
77828;SDS011;67019;51.034;3.728;2023-07-31T00:10:41;19.48;;;6.80;;
77828;SDS011;67019;51.034;3.728;2023-07-31T00:13:08;16.93;;;7.00;;
77828;SDS011;67019;51.034;3.728;2023-07-31T00:15:36;21.23;;;8.13;;
77828;SDS011;67019;51.034;3.728;2023-07-31T00:18:04;21.37;;;6.80;;
77828;SDS011;67019;51.034;3.728;2023-07-31T00:20:31;22.52;;;6.15;;
77828;SDS011;67019;51.034;3.728;2023-07-31T00:22:59;18.62;;;7.00;;
77828;SDS011;67019;51.034;3.728;2023-07-31T00:25:26;25.27;;;8.03;;
77828;SDS011;67019;51.034;3.728;2023-07-31T00:27:54;28.52;;;7.03;;
77828;SDS011;67019;51.034;3.728;2023-07-31T00:30:21;14.13;;;4.65;;
77828;SDS011;67019;51.034;3.728;2023-07-31T00:32:51;20.92;;;6.35;;
77828;SDS011;67019;51.034;3.728;2023-07-31T00:35:18;20.05;;;5.97;;
77828;SDS011;67019;51.034;3.728;2023-07-31T00:37:46;22.22;;;6.47;;
77828;SDS011;67019;51.034;3.728;2023-07-31T00:40:13;15.68;;;5.28;;
77828;SDS011;67019;51.034;3.728;2023-07-31T00:42:41;16.00;;;6.65;;
77828;SDS011;67019;51.034;3.728;2023-07-31T00:45:09;16.07;;;5.72;;
77828;SDS011;67019;51.034;3.728;2023-07-31T00:47:36;24.98;;;7.55;;
77828;SDS011;67019;51.034;3.728;2023-07-31T00:50:04;23.87;;;6.10;;
77828;SDS011;67019;51.034;3.728;2023-07-31T00:52:32;17.17;;;5.85;;
77828;SDS011;67019;51.034;3.728;2023-07-31T00:55:00;23.27;;;6.33;;
77828;SDS011;67019;51.034;3.728;2023-07-31T00:57:27;22.82;;;6.60;;
77828;SDS011;67019;51.034;3.728;2023-07-31T00:59:55;15.72;;;5.95;;
77828;SDS011;67019;51.034;3.728;2023-07-31T01:02:23;27.75;;;6.92;;
77828;SDS011;67019;51.034;3.728;2023-07-31T01:04:50;21.80;;;6.42;;
77828;SDS011;67019;51.034;3.728;2023-07-31T01:07:24;21.00;;;5.67;;
77828;SDS011;67019;51.034;3.728;2023-07-31T01:10:03;13.40;;;5.17;;
77828;SDS011;67019;51.034;3.728;2023-07-31T01:12:29;28.23;;;5.95;;
77828;SDS011;67019;51.034;3.728;2023-07-31T01:15:08;16.27;;;5.60;;
77828;SDS011;67019;51.034;3.728;2023-07-31T01:17:45;16.67;;;5.72;;
77828;SDS011;67019;51.034;3.728;2023-07-31T01:20:13;21.27;;;6.55;;
77828;SDS011;67019;51.034;3.728;2023-07-31T01:28:14;16.17;;;5.58;;
77828;SDS011;67019;51.034;3.728;2023-07-31T01:30:53;16.82;;;6.15;;
77828;SDS011;67019;51.034;3.728;2023-07-31T01:33:24;22.65;;;6.17;;
77828;SDS011;67019;51.034;3.728;2023-07-31T01:35:52;15.05;;;4.90;;
77828;SDS011;67019;51.034;3.728;2023-07-31T01:38:20;16.42;;;5.00;;
77828;SDS011;67019;51.034;3.728;2023-07-31T01:40:52;23.75;;;6.28;;
77828;SDS011;67019;51.034;3.728;2023-07-31T01:43:20;15.53;;;5.30;;
77828;SDS011;67019;51.034;3.728;2023-07-31T01:45:47;18.40;;;5.80;;
77828;SDS011;67019;51.034;3.728;2023-07-31T01:48:15;15.25;;;5.08;;
77828;SDS011;67019;51.034;3.728;2023-07-31T01:50:44;22.75;;;5.92;;
77828;SDS011;67019;51.034;3.728;2023-07-31T01:53:12;7.42;;;5.58;;
77828;SDS011;67019;51.034;3.728;2023-07-31T01:55:39;16.20;;;5.75;;
77828;SDS011;67019;51.034;3.728;2023-07-31T01:58:07;14.28;;;5.05;;
77828;SDS011;67019;51.034;3.728;2023-07-31T02:00:34;15.43;;;5.87;;
77828;SDS011;67019;51.034;3.728;2023-07-31T02:03:02;14.43;;;5.03;;
77828;SDS011;67019;51.034;3.728;2023-07-31T02:05:30;15.78;;;5.20;;
77828;SDS011;67019;51.034;3.728;2023-07-31T02:07:57;22.05;;;4.83;;
77828;SDS011;67019;51.034;3.728;2023-07-31T02:10:25;17.52;;;5.40;;
77828;SDS011;67019;51.034;3.728;2023-07-31T02:12:52;15.35;;;4.50;;
77828;SDS011;67019;51.034;3.728;2023-07-31T02:15:20;17.02;;;5.50;;
77828;SDS011;67019;51.034;3.728;2023-07-31T02:17:48;15.50;;;5.05;;
77828;SDS011;67019;51.034;3.728;2023-07-31T02:20:15;22.70;;;5.53;;
77828;SDS011;67019;51.034;3.728;2023-07-31T02:22:43;15.53;;;5.12;;
77828;SDS011;67019;51.034;3.728;2023-07-31T02:25:10;16.55;;;5.17;;
77828;SDS011;67019;51.034;3.728;2023-07-31T02:27:38;18.32;;;6.37;;
77828;SDS011;67019;51.034;3.728;2023-07-31T02:30:06;20.75;;;4.90;;
77828;SDS011;67019;51.034;3.728;2023-07-31T02:32:34;19.37;;;4.97;;
77828;SDS011;67019;51.034;3.728;2023-07-31T02:35:01;14.85;;;4.90;;
77828;SDS011;67019;51.034;3.728;2023-07-31T02:37:29;21.12;;;4.95;;
77828;SDS011;67019;51.034;3.728;2023-07-31T02:39:57;16.30;;;4.67;;
77828;SDS011;67019;51.034;3.728;2023-07-31T02:42:24;16.25;;;5.33;;
77828;SDS011;67019;51.034;3.728;2023-07-31T02:44:52;20.08;;;6.97;;
77828;SDS011;67019;51.034;3.728;2023-07-31T02:47:21;15.08;;;5.05;;
77828;SDS011;67019;51.034;3.728;2023-07-31T02:49:49;20.00;;;5.62;;
77828;SDS011;67019;51.034;3.728;2023-07-31T02:52:17;15.38;;;5.15;;
77828;SDS011;67019;51.034;3.728;2023-07-31T02:54:45;17.25;;;6.78;;
77828;SDS011;67019;51.034;3.728;2023-07-31T02:57:13;16.90;;;5.85;;
77828;SDS011;67019;51.034;3.728;2023-07-31T02:59:42;19.57;;;6.08;;
77828;SDS011;67019;51.034;3.728;2023-07-31T03:02:09;13.30;;;5.15;;
77828;SDS011;67019;51.034;3.728;2023-07-31T03:04:38;23.07;;;5.87;;
77828;SDS011;67019;51.034;3.728;2023-07-31T03:07:06;18.57;;;5.97;;
77828;SDS011;67019;51.034;3.728;2023-07-31T03:09:33;18.67;;;6.08;;
77828;SDS011;67019;51.034;3.728;2023-07-31T03:12:01;16.55;;;5.37;;
77828;SDS011;67019;51.034;3.728;2023-07-31T03:14:29;16.40;;;5.75;;
77828;SDS011;67019;51.034;3.728;2023-07-31T03:16:56;15.78;;;5.33;;
77828;SDS011;67019;51.034;3.728;2023-07-31T03:19:24;19.15;;;6.37;;
77828;SDS011;67019;51.034;3.728;2023-07-31T03:21:52;16.37;;;6.15;;
77828;SDS011;67019;51.034;3.728;2023-07-31T03:24:21;21.87;;;6.80;;
77828;SDS011;67019;51.034;3.728;2023-07-31T03:26:49;16.07;;;5.42;;
77828;SDS011;67019;51.034;3.728;2023-07-31T03:29:16;19.92;;;7.10;;
77828;SDS011;67019;51.034;3.728;2023-07-31T03:31:44;15.25;;;6.42;;
77828;SDS011;67019;51.034;3.728;2023-07-31T03:34:11;18.98;;;6.22;;
77828;SDS011;67019;51.034;3.728;2023-07-31T03:36:39;19.30;;;6.90;;
77828;SDS011;67019;51.034;3.728;2023-07-31T03:39:07;23.65;;;7.15;;
77828;SDS011;67019;51.034;3.728;2023-07-31T03:41:34;16.52;;;6.85;;
77828;SDS011;67019;51.034;3.728;2023-07-31T03:44:02;14.35;;;6.97;;
77828;SDS011;67019;51.034;3.728;2023-07-31T03:46:29;22.10;;;7.37;;
77828;SDS011;67019;51.034;3.728;2023-07-31T03:48:57;18.23;;;6.83;;
77828;SDS011;67019;51.034;3.728;2023-07-31T03:51:25;25.02;;;7.45;;
77828;SDS011;67019;51.034;3.728;2023-07-31T03:53:53;27.60;;;7.00;;
77828;SDS011;67019;51.034;3.728;2023-07-31T03:56:20;19.02;;;7.33;;
77828;SDS011;67019;51.034;3.728;2023-07-31T03:58:48;20.05;;;7.28;;
77828;SDS011;67019;51.034;3.728;2023-07-31T04:01:16;22.90;;;7.78;;
77828;SDS011;67019;51.034;3.728;2023-07-31T04:03:45;19.57;;;7.92;;
77828;SDS011;67019;51.034;3.728;2023-07-31T04:06:12;19.57;;;7.05;;
77828;SDS011;67019;51.034;3.728;2023-07-31T04:08:42;17.52;;;7.12;;
77828;SDS011;67019;51.034;3.728;2023-07-31T04:11:10;16.37;;;7.75;;
77828;SDS011;67019;51.034;3.728;2023-07-31T04:13:38;25.55;;;8.63;;
77828;SDS011;67019;51.034;3.728;2023-07-31T04:16:06;21.52;;;7.97;;
77828;SDS011;67019;51.034;3.728;2023-07-31T04:18:33;12.82;;;6.25;;
77828;SDS011;67019;51.034;3.728;2023-07-31T04:21:01;20.32;;;6.50;;
77828;SDS011;67019;51.034;3.728;2023-07-31T04:23:28;15.30;;;7.03;;
77828;SDS011;67019;51.034;3.728;2023-07-31T04:25:56;26.80;;;6.85;;
77828;SDS011;67019;51.034;3.728;2023-07-31T04:28:24;16.87;;;5.85;;
77828;SDS011;67019;51.034;3.728;2023-07-31T04:30:51;18.77;;;6.67;;
77828;SDS011;67019;51.034;3.728;2023-07-31T04:33:19;15.28;;;7.05;;
77828;SDS011;67019;51.034;3.728;2023-07-31T04:35:50;13.40;;;5.42;;
77828;SDS011;67019;51.034;3.728;2023-07-31T04:38:19;13.08;;;5.70;;
77828;SDS011;67019;51.034;3.728;2023-07-31T04:40:47;16.30;;;6.03;;
77828;SDS011;67019;51.034;3.728;2023-07-31T04:43:15;13.55;;;5.62;;
77828;SDS011;67019;51.034;3.728;2023-07-31T04:45:48;8.60;;;5.35;;
77828;SDS011;67019;51.034;3.728;2023-07-31T04:48:13;11.88;;;5.28;;
77828;SDS011;67019;51.034;3.728;2023-07-31T04:50:41;14.83;;;5.70;;
77828;SDS011;67019;51.034;3.728;2023-07-31T04:53:09;14.95;;;5.75;;
77828;SDS011;67019;51.034;3.728;2023-07-31T04:55:36;11.15;;;5.40;;
77828;SDS011;67019;51.034;3.728;2023-07-31T04:58:04;8.58;;;4.50;;
77828;SDS011;67019;51.034;3.728;2023-07-31T05:00:32;11.33;;;5.25;;
77828;SDS011;67019;51.034;3.728;2023-07-31T05:03:00;9.13;;;4.17;;
77828;SDS011;67019;51.034;3.728;2023-07-31T05:05:27;9.40;;;4.90;;
77828;SDS011;67019;51.034;3.728;2023-07-31T05:07:55;12.35;;;6.62;;
77828;SDS011;67019;51.034;3.728;2023-07-31T05:10:23;15.03;;;8.73;;
77828;SDS011;67019;51.034;3.728;2023-07-31T05:12:52;12.68;;;5.97;;
77828;SDS011;67019;51.034;3.728;2023-07-31T05:15:20;13.53;;;5.53;;
77828;SDS011;67019;51.034;3.728;2023-07-31T05:17:47;11.48;;;5.97;;
77828;SDS011;67019;51.034;3.728;2023-07-31T05:20:15;17.27;;;6.35;;
77828;SDS011;67019;51.034;3.728;2023-07-31T05:22:43;17.42;;;7.67;;
77828;SDS011;67019;51.034;3.728;2023-07-31T05:25:10;15.98;;;6.67;;
77828;SDS011;67019;51.034;3.728;2023-07-31T05:27:38;14.73;;;6.58;;
77828;SDS011;67019;51.034;3.728;2023-07-31T05:30:06;10.90;;;5.67;;
77828;SDS011;67019;51.034;3.728;2023-07-31T05:32:34;15.30;;;6.67;;
77828;SDS011;67019;51.034;3.728;2023-07-31T05:35:02;12.33;;;5.60;;
77828;SDS011;67019;51.034;3.728;2023-07-31T05:37:29;11.18;;;5.20;;
77828;SDS011;67019;51.034;3.728;2023-07-31T05:39:57;13.58;;;5.90;;
77828;SDS011;67019;51.034;3.728;2023-07-31T05:42:25;10.00;;;5.47;;
77828;SDS011;67019;51.034;3.728;2023-07-31T05:44:52;13.62;;;6.12;;
77828;SDS011;67019;51.034;3.728;2023-07-31T05:47:20;10.28;;;5.95;;
77828;SDS011;67019;51.034;3.728;2023-07-31T05:49:48;9.30;;;5.22;;
77828;SDS011;67019;51.034;3.728;2023-07-31T05:52:17;7.78;;;5.85;;
77828;SDS011;67019;51.034;3.728;2023-07-31T05:54:45;10.58;;;4.95;;
77828;SDS011;67019;51.034;3.728;2023-07-31T05:57:13;10.43;;;5.50;;
77828;SDS011;67019;51.034;3.728;2023-07-31T05:59:40;12.75;;;5.40;;
77828;SDS011;67019;51.034;3.728;2023-07-31T06:02:08;12.20;;;5.33;;
77828;SDS011;67019;51.034;3.728;2023-07-31T06:04:36;13.40;;;6.17;;
77828;SDS011;67019;51.034;3.728;2023-07-31T06:07:03;12.63;;;6.20;;
77828;SDS011;67019;51.034;3.728;2023-07-31T06:09:31;11.15;;;5.42;;
77828;SDS011;67019;51.034;3.728;2023-07-31T06:11:59;17.12;;;6.30;;
77828;SDS011;67019;51.034;3.728;2023-07-31T06:14:26;13.95;;;4.92;;
77828;SDS011;67019;51.034;3.728;2023-07-31T06:16:54;17.65;;;5.65;;
77828;SDS011;67019;51.034;3.728;2023-07-31T06:19:21;12.82;;;4.85;;
77828;SDS011;67019;51.034;3.728;2023-07-31T06:21:49;12.18;;;5.12;;
77828;SDS011;67019;51.034;3.728;2023-07-31T06:24:18;11.43;;;5.42;;
77828;SDS011;67019;51.034;3.728;2023-07-31T06:26:46;14.30;;;5.30;;
77828;SDS011;67019;51.034;3.728;2023-07-31T06:29:14;10.10;;;5.83;;
77828;SDS011;67019;51.034;3.728;2023-07-31T06:31:41;16.37;;;5.08;;
77828;SDS011;67019;51.034;3.728;2023-07-31T06:34:09;15.68;;;4.87;;
77828;SDS011;67019;51.034;3.728;2023-07-31T06:36:37;13.38;;;4.90;;
77828;SDS011;67019;51.034;3.728;2023-07-31T06:39:04;9.45;;;4.90;;
77828;SDS011;67019;51.034;3.728;2023-07-31T06:41:32;11.15;;;4.95;;
77828;SDS011;67019;51.034;3.728;2023-07-31T06:44:00;8.78;;;4.28;;
77828;SDS011;67019;51.034;3.728;2023-07-31T06:46:29;14.38;;;4.92;;
77828;SDS011;67019;51.034;3.728;2023-07-31T06:48:56;11.60;;;4.83;;
77828;SDS011;67019;51.034;3.728;2023-07-31T06:51:24;12.15;;;5.22;;
77828;SDS011;67019;51.034;3.728;2023-07-31T06:53:52;13.60;;;5.40;;
77828;SDS011;67019;51.034;3.728;2023-07-31T06:56:20;15.80;;;4.30;;
77828;SDS011;67019;51.034;3.728;2023-07-31T06:58:48;11.35;;;5.47;;
77828;SDS011;67019;51.034;3.728;2023-07-31T07:01:16;9.00;;;4.45;;
77828;SDS011;67019;51.034;3.728;2023-07-31T07:03:43;14.65;;;5.08;;
77828;SDS011;67019;51.034;3.728;2023-07-31T07:06:11;12.95;;;4.20;;
77828;SDS011;67019;51.034;3.728;2023-07-31T07:08:38;13.40;;;4.10;;
77828;SDS011;67019;51.034;3.728;2023-07-31T07:11:06;9.55;;;4.80;;
77828;SDS011;67019;51.034;3.728;2023-07-31T07:13:34;10.48;;;3.87;;
77828;SDS011;67019;51.034;3.728;2023-07-31T07:16:02;24.87;;;5.17;;
77828;SDS011;67019;51.034;3.728;2023-07-31T07:18:29;13.03;;;4.40;;
77828;SDS011;67019;51.034;3.728;2023-07-31T07:20:57;7.37;;;3.85;;
77828;SDS011;67019;51.034;3.728;2023-07-31T07:23:26;13.40;;;4.92;;
77828;SDS011;67019;51.034;3.728;2023-07-31T07:25:55;8.78;;;5.53;;
77828;SDS011;67019;51.034;3.728;2023-07-31T07:28:23;11.83;;;4.17;;
77828;SDS011;67019;51.034;3.728;2023-07-31T07:30:51;10.30;;;4.65;;
77828;SDS011;67019;51.034;3.728;2023-07-31T07:33:22;11.70;;;4.35;;
77828;SDS011;67019;51.034;3.728;2023-07-31T07:35:49;8.53;;;4.00;;
77828;SDS011;67019;51.034;3.728;2023-07-31T07:38:17;10.48;;;4.35;;
77828;SDS011;67019;51.034;3.728;2023-07-31T07:40:45;9.13;;;4.90;;
77828;SDS011;67019;51.034;3.728;2023-07-31T07:43:14;7.67;;;3.50;;
77828;SDS011;67019;51.034;3.728;2023-07-31T07:45:41;9.25;;;4.40;;
77828;SDS011;67019;51.034;3.728;2023-07-31T07:48:09;9.53;;;4.62;;
77828;SDS011;67019;51.034;3.728;2023-07-31T07:50:38;9.70;;;4.30;;
77828;SDS011;67019;51.034;3.728;2023-07-31T07:53:07;9.48;;;4.33;;
77828;SDS011;67019;51.034;3.728;2023-07-31T07:55:35;6.65;;;3.65;;
77828;SDS011;67019;51.034;3.728;2023-07-31T07:58:04;8.25;;;3.55;;
77828;SDS011;67019;51.034;3.728;2023-07-31T08:00:32;14.03;;;4.12;;
77828;SDS011;67019;51.034;3.728;2023-07-31T08:03:01;7.35;;;3.10;;
77828;SDS011;67019;51.034;3.728;2023-07-31T08:05:28;9.83;;;4.30;;
77828;SDS011;67019;51.034;3.728;2023-07-31T08:07:57;9.65;;;3.77;;
77828;SDS011;67019;51.034;3.728;2023-07-31T08:10:25;4.60;;;3.15;;
77828;SDS011;67019;51.034;3.728;2023-07-31T08:12:53;10.40;;;3.33;;
77828;SDS011;67019;51.034;3.728;2023-07-31T08:15:20;8.28;;;3.30;;
77828;SDS011;67019;51.034;3.728;2023-07-31T08:17:48;8.15;;;3.62;;
77828;SDS011;67019;51.034;3.728;2023-07-31T08:20:16;6.45;;;3.08;;
77828;SDS011;67019;51.034;3.728;2023-07-31T08:22:43;6.47;;;2.83;;
77828;SDS011;67019;51.034;3.728;2023-07-31T08:25:11;5.25;;;2.83;;
77828;SDS011;67019;51.034;3.728;2023-07-31T08:27:39;6.75;;;2.77;;
77828;SDS011;67019;51.034;3.728;2023-07-31T08:30:11;6.87;;;2.42;;
77828;SDS011;67019;51.034;3.728;2023-07-31T08:32:39;4.97;;;3.05;;
77828;SDS011;67019;51.034;3.728;2023-07-31T08:35:06;3.87;;;2.55;;
77828;SDS011;67019;51.034;3.728;2023-07-31T08:37:34;4.75;;;2.35;;
77828;SDS011;67019;51.034;3.728;2023-07-31T08:40:02;10.20;;;2.62;;
77828;SDS011;67019;51.034;3.728;2023-07-31T08:42:30;3.35;;;2.22;;
77828;SDS011;67019;51.034;3.728;2023-07-31T08:44:58;7.92;;;2.45;;
77828;SDS011;67019;51.034;3.728;2023-07-31T08:47:28;6.70;;;2.45;;
77828;SDS011;67019;51.034;3.728;2023-07-31T08:49:56;10.50;;;2.33;;
77828;SDS011;67019;51.034;3.728;2023-07-31T08:52:25;4.20;;;2.90;;
77828;SDS011;67019;51.034;3.728;2023-07-31T08:54:53;8.25;;;2.80;;
77828;SDS011;67019;51.034;3.728;2023-07-31T08:57:20;5.42;;;2.05;;
77828;SDS011;67019;51.034;3.728;2023-07-31T08:59:49;6.37;;;2.92;;
77828;SDS011;67019;51.034;3.728;2023-07-31T09:02:18;5.90;;;3.40;;
77828;SDS011;67019;51.034;3.728;2023-07-31T09:04:47;4.40;;;2.45;;
77828;SDS011;67019;51.034;3.728;2023-07-31T09:07:15;5.17;;;2.55;;
77828;SDS011;67019;51.034;3.728;2023-07-31T09:09:44;7.08;;;3.35;;
77828;SDS011;67019;51.034;3.728;2023-07-31T09:12:14;8.68;;;3.08;;
77828;SDS011;67019;51.034;3.728;2023-07-31T09:14:42;8.63;;;3.22;;
77828;SDS011;67019;51.034;3.728;2023-07-31T09:17:12;4.20;;;2.60;;
77828;SDS011;67019;51.034;3.728;2023-07-31T09:19:39;4.67;;;3.05;;
77828;SDS011;67019;51.034;3.728;2023-07-31T09:22:07;4.45;;;2.80;;
77828;SDS011;67019;51.034;3.728;2023-07-31T09:24:35;5.75;;;3.37;;
77828;SDS011;67019;51.034;3.728;2023-07-31T09:27:05;4.83;;;3.20;;
77828;SDS011;67019;51.034;3.728;2023-07-31T09:29:33;8.20;;;3.55;;
77828;SDS011;67019;51.034;3.728;2023-07-31T09:32:00;7.28;;;2.83;;
77828;SDS011;67019;51.034;3.728;2023-07-31T09:34:29;8.33;;;3.50;;
77828;SDS011;67019;51.034;3.728;2023-07-31T09:37:01;8.90;;;3.37;;
77828;SDS011;67019;51.034;3.728;2023-07-31T09:39:29;7.35;;;3.33;;
77828;SDS011;67019;51.034;3.728;2023-07-31T09:41:57;6.37;;;3.15;;
77828;SDS011;67019;51.034;3.728;2023-07-31T09:44:40;5.08;;;3.05;;
77828;SDS011;67019;51.034;3.728;2023-07-31T09:47:20;12.85;;;4.55;;
77828;SDS011;67019;51.034;3.728;2023-07-31T09:49:52;8.60;;;4.33;;
77828;SDS011;67019;51.034;3.728;2023-07-31T09:52:21;9.58;;;3.90;;
77828;SDS011;67019;51.034;3.728;2023-07-31T09:54:50;7.08;;;4.22;;
77828;SDS011;67019;51.034;3.728;2023-07-31T09:57:18;5.85;;;4.55;;
77828;SDS011;67019;51.034;3.728;2023-07-31T09:59:49;8.93;;;3.60;;
77828;SDS011;67019;51.034;3.728;2023-07-31T10:02:20;7.40;;;4.08;;
77828;SDS011;67019;51.034;3.728;2023-07-31T10:04:49;8.35;;;4.08;;
77828;SDS011;67019;51.034;3.728;2023-07-31T10:07:17;4.55;;;3.45;;
77828;SDS011;67019;51.034;3.728;2023-07-31T10:09:47;8.00;;;3.95;;
77828;SDS011;67019;51.034;3.728;2023-07-31T10:12:15;8.35;;;3.60;;
77828;SDS011;67019;51.034;3.728;2023-07-31T10:14:45;10.03;;;4.08;;
77828;SDS011;67019;51.034;3.728;2023-07-31T10:17:13;9.85;;;5.10;;
77828;SDS011;67019;51.034;3.728;2023-07-31T10:19:41;9.38;;;4.70;;
77828;SDS011;67019;51.034;3.728;2023-07-31T10:22:10;11.43;;;4.67;;
77828;SDS011;67019;51.034;3.728;2023-07-31T10:24:41;9.20;;;4.72;;
77828;SDS011;67019;51.034;3.728;2023-07-31T10:27:12;8.70;;;4.85;;
77828;SDS011;67019;51.034;3.728;2023-07-31T10:29:41;9.23;;;4.55;;
77828;SDS011;67019;51.034;3.728;2023-07-31T10:32:10;8.28;;;5.00;;
77828;SDS011;67019;51.034;3.728;2023-07-31T10:34:41;6.65;;;4.70;;
77828;SDS011;67019;51.034;3.728;2023-07-31T10:37:28;9.18;;;5.58;;
77828;SDS011;67019;51.034;3.728;2023-07-31T10:45:25;9.55;;;4.42;;
77828;SDS011;67019;51.034;3.728;2023-07-31T10:48:07;8.88;;;4.33;;
77828;SDS011;67019;51.034;3.728;2023-07-31T10:51:06;9.60;;;3.42;;
77828;SDS011;67019;51.034;3.728;2023-07-31T10:53:29;13.85;;;7.53;;
77828;SDS011;67019;51.034;3.728;2023-07-31T10:56:00;7.92;;;4.03;;
77828;SDS011;67019;51.034;3.728;2023-07-31T10:58:29;9.28;;;4.62;;
77828;SDS011;67019;51.034;3.728;2023-07-31T11:01:00;8.48;;;4.35;;
77828;SDS011;67019;51.034;3.728;2023-07-31T11:03:42;9.05;;;4.20;;
77828;SDS011;67019;51.034;3.728;2023-07-31T11:06:11;5.95;;;3.42;;
77828;SDS011;67019;51.034;3.728;2023-07-31T11:08:43;10.05;;;4.00;;
77828;SDS011;67019;51.034;3.728;2023-07-31T11:11:13;8.48;;;3.67;;
77828;SDS011;67019;51.034;3.728;2023-07-31T11:16:27;5.33;;;3.77;;
77828;SDS011;67019;51.034;3.728;2023-07-31T11:18:55;4.85;;;2.85;;
77828;SDS011;67019;51.034;3.728;2023-07-31T11:21:23;5.62;;;4.00;;
77828;SDS011;67019;51.034;3.728;2023-07-31T11:23:52;8.88;;;3.62;;
77828;SDS011;67019;51.034;3.728;2023-07-31T11:26:22;11.68;;;3.58;;
77828;SDS011;67019;51.034;3.728;2023-07-31T11:28:51;6.70;;;4.25;;
77828;SDS011;67019;51.034;3.728;2023-07-31T11:31:18;8.80;;;3.52;;
77828;SDS011;67019;51.034;3.728;2023-07-31T11:33:46;6.72;;;4.10;;
77828;SDS011;67019;51.034;3.728;2023-07-31T11:36:19;7.30;;;3.40;;
77828;SDS011;67019;51.034;3.728;2023-07-31T11:38:45;12.23;;;4.62;;
77828;SDS011;67019;51.034;3.728;2023-07-31T11:41:13;10.35;;;4.15;;
77828;SDS011;67019;51.034;3.728;2023-07-31T11:43:42;7.17;;;4.40;;
77828;SDS011;67019;51.034;3.728;2023-07-31T11:46:12;9.95;;;4.60;;
77828;SDS011;67019;51.034;3.728;2023-07-31T11:48:42;6.70;;;4.08;;
77828;SDS011;67019;51.034;3.728;2023-07-31T11:51:10;8.53;;;4.12;;
77828;SDS011;67019;51.034;3.728;2023-07-31T11:56:15;9.30;;;4.35;;
77828;SDS011;67019;51.034;3.728;2023-07-31T11:58:48;8.30;;;4.97;;
77828;SDS011;67019;51.034;3.728;2023-07-31T12:01:22;11.05;;;3.72;;
77828;SDS011;67019;51.034;3.728;2023-07-31T12:03:49;9.23;;;4.92;;
77828;SDS011;67019;51.034;3.728;2023-07-31T12:06:17;13.62;;;5.25;;
77828;SDS011;67019;51.034;3.728;2023-07-31T12:08:47;9.55;;;3.67;;
77828;SDS011;67019;51.034;3.728;2023-07-31T12:11:15;9.78;;;4.42;;
77828;SDS011;67019;51.034;3.728;2023-07-31T12:13:43;8.85;;;4.55;;
77828;SDS011;67019;51.034;3.728;2023-07-31T12:16:11;10.28;;;4.78;;
77828;SDS011;67019;51.034;3.728;2023-07-31T12:18:39;10.48;;;4.12;;
77828;SDS011;67019;51.034;3.728;2023-07-31T12:21:07;9.40;;;5.00;;
77828;SDS011;67019;51.034;3.728;2023-07-31T12:23:37;6.62;;;4.85;;
77828;SDS011;67019;51.034;3.728;2023-07-31T12:26:11;15.18;;;9.18;;
77828;SDS011;67019;51.034;3.728;2023-07-31T12:28:42;36.73;;;23.62;;
77828;SDS011;67019;51.034;3.728;2023-07-31T12:31:17;11.57;;;5.75;;
77828;SDS011;67019;51.034;3.728;2023-07-31T12:33:48;10.98;;;6.72;;
77828;SDS011;67019;51.034;3.728;2023-07-31T12:36:23;13.38;;;7.25;;
77828;SDS011;67019;51.034;3.728;2023-07-31T12:38:51;16.27;;;6.40;;
77828;SDS011;67019;51.034;3.728;2023-07-31T12:41:19;14.07;;;7.33;;
77828;SDS011;67019;51.034;3.728;2023-07-31T12:43:52;9.98;;;6.17;;
77828;SDS011;67019;51.034;3.728;2023-07-31T12:46:19;11.78;;;6.15;;
77828;SDS011;67019;51.034;3.728;2023-07-31T12:48:47;12.50;;;6.28;;
77828;SDS011;67019;51.034;3.728;2023-07-31T12:51:14;9.93;;;5.08;;
77828;SDS011;67019;51.034;3.728;2023-07-31T12:53:44;11.48;;;5.00;;
77828;SDS011;67019;51.034;3.728;2023-07-31T12:56:11;8.48;;;4.78;;
77828;SDS011;67019;51.034;3.728;2023-07-31T12:58:40;6.67;;;4.53;;
77828;SDS011;67019;51.034;3.728;2023-07-31T13:01:09;9.68;;;5.05;;
77828;SDS011;67019;51.034;3.728;2023-07-31T13:06:05;6.60;;;3.92;;
77828;SDS011;67019;51.034;3.728;2023-07-31T13:08:32;7.83;;;4.55;;
77828;SDS011;67019;51.034;3.728;2023-07-31T13:11:01;8.45;;;4.58;;
77828;SDS011;67019;51.034;3.728;2023-07-31T13:13:30;7.75;;;4.00;;
77828;SDS011;67019;51.034;3.728;2023-07-31T13:15:57;6.05;;;3.40;;
77828;SDS011;67019;51.034;3.728;2023-07-31T13:18:25;5.53;;;3.95;;
77828;SDS011;67019;51.034;3.728;2023-07-31T13:20:53;8.93;;;4.35;;
77828;SDS011;67019;51.034;3.728;2023-07-31T13:23:20;7.47;;;4.45;;
77828;SDS011;67019;51.034;3.728;2023-07-31T13:25:48;5.45;;;3.90;;
77828;SDS011;67019;51.034;3.728;2023-07-31T13:28:18;6.67;;;3.98;;
77828;SDS011;67019;51.034;3.728;2023-07-31T13:30:45;7.78;;;3.10;;
77828;SDS011;67019;51.034;3.728;2023-07-31T13:33:13;6.37;;;3.40;;
77828;SDS011;67019;51.034;3.728;2023-07-31T13:35:40;6.58;;;3.10;;
77828;SDS011;67019;51.034;3.728;2023-07-31T13:38:08;5.15;;;2.67;;
77828;SDS011;67019;51.034;3.728;2023-07-31T13:40:35;5.03;;;2.77;;
77828;SDS011;67019;51.034;3.728;2023-07-31T13:43:03;4.55;;;2.80;;
77828;SDS011;67019;51.034;3.728;2023-07-31T13:45:33;8.80;;;2.85;;
77828;SDS011;67019;51.034;3.728;2023-07-31T13:48:00;7.42;;;2.80;;
77828;SDS011;67019;51.034;3.728;2023-07-31T13:50:29;4.78;;;2.72;;
77828;SDS011;67019;51.034;3.728;2023-07-31T13:52:57;5.35;;;2.87;;
77828;SDS011;67019;51.034;3.728;2023-07-31T13:55:24;4.58;;;3.02;;
77828;SDS011;67019;51.034;3.728;2023-07-31T14:05:05;9.88;;;4.33;;
77828;SDS011;67019;51.034;3.728;2023-07-31T14:17:55;11.22;;;4.40;;
77828;SDS011;67019;51.034;3.728;2023-07-31T14:24:18;8.83;;;3.80;;
77828;SDS011;67019;51.034;3.728;2023-07-31T14:57:00;5.70;;;2.37;;
77828;SDS011;67019;51.034;3.728;2023-07-31T14:59:28;4.83;;;3.00;;
77828;SDS011;67019;51.034;3.728;2023-07-31T15:01:55;5.80;;;2.20;;
77828;SDS011;67019;51.034;3.728;2023-07-31T15:04:23;3.00;;;2.17;;
77828;SDS011;67019;51.034;3.728;2023-07-31T15:06:51;3.65;;;2.22;;
77828;SDS011;67019;51.034;3.728;2023-07-31T15:09:21;3.37;;;2.33;;
77828;SDS011;67019;51.034;3.728;2023-07-31T15:11:48;2.77;;;2.10;;
77828;SDS011;67019;51.034;3.728;2023-07-31T15:14:17;4.17;;;2.35;;
77828;SDS011;67019;51.034;3.728;2023-07-31T15:16:46;5.47;;;2.55;;
77828;SDS011;67019;51.034;3.728;2023-07-31T15:19:15;3.35;;;2.50;;
77828;SDS011;67019;51.034;3.728;2023-07-31T15:21:43;6.05;;;3.62;;
77828;SDS011;67019;51.034;3.728;2023-07-31T15:24:11;4.20;;;2.37;;
77828;SDS011;67019;51.034;3.728;2023-07-31T15:26:43;3.47;;;2.30;;
77828;SDS011;67019;51.034;3.728;2023-07-31T15:29:08;3.45;;;1.95;;
77828;SDS011;67019;51.034;3.728;2023-07-31T15:31:41;3.40;;;1.70;;
77828;SDS011;67019;51.034;3.728;2023-07-31T15:34:09;3.90;;;2.20;;
77828;SDS011;67019;51.034;3.728;2023-07-31T15:36:37;3.50;;;2.08;;
77828;SDS011;67019;51.034;3.728;2023-07-31T15:39:15;2.20;;;1.72;;
77828;SDS011;67019;51.034;3.728;2023-07-31T15:41:43;3.50;;;1.87;;
77828;SDS011;67019;51.034;3.728;2023-07-31T15:44:07;3.77;;;1.67;;
77828;SDS011;67019;51.034;3.728;2023-07-31T15:46:35;2.60;;;1.32;;
77828;SDS011;67019;51.034;3.728;2023-07-31T15:49:03;4.08;;;1.80;;
77828;SDS011;67019;51.034;3.728;2023-07-31T15:51:32;3.42;;;1.60;;
77828;SDS011;67019;51.034;3.728;2023-07-31T15:54:04;2.62;;;1.32;;
77828;SDS011;67019;51.034;3.728;2023-07-31T15:56:31;2.52;;;1.55;;
77828;SDS011;67019;51.034;3.728;2023-07-31T15:58:59;3.62;;;1.80;;